Time;durP1;ratioP1;P1;durP2;ratioP2;P2;SDS_P1;SDS_P2;PMS_P1;PMS_P2;Temp;Humidity;BMP_temperature;BMP_pressure;BME280_temperature;BME280_humidity;BME280_pressure;Samples;Min_cycle;Max_cycle;Signal;HPM_P1;HPM_P2
2022/06/07 00:00:12;;;;;;;;;1.00;1.00;;;;;20.89;89.98;101288.38;5016303;28;54779;-69
2022/06/07 00:02:38;;;;;;;;;2.00;1.00;;;;;20.86;89.24;101285.75;5035163;28;47110;-69
2022/06/07 00:05:03;;;;;;;;;1.00;1.00;;;;;20.86;90.50;101287.56;5012812;28;45430;-69
2022/06/07 00:07:29;;;;;;;;;3.33;2.00;;;;;20.86;89.52;101291.13;5034404;28;45428;-70
2022/06/07 00:09:55;;;;;;;;;2.00;1.00;;;;;20.85;90.82;101283.13;5017303;28;45591;-69
2022/06/07 00:12:20;;;;;;;;;1.00;1.00;;;;;20.81;90.12;101282.31;5016832;28;46680;-69
2022/06/07 00:14:46;;;;;;;;;4.33;2.00;;;;;20.79;90.32;101278.78;5034924;28;45698;-69
2022/06/07 00:17:12;;;;;;;;;1.00;1.00;;;;;20.76;90.44;101275.28;5034004;28;61137;-69
2022/06/07 00:19:38;;;;;;;;;2.00;2.00;;;;;20.75;91.78;101276.22;5034857;28;45495;-69
2022/06/07 00:22:04;;;;;;;;;1.00;1.00;;;;;20.75;91.02;101277.09;5034960;28;46252;-69
2022/06/07 00:24:29;;;;;;;;;1.00;1.00;;;;;20.73;91.52;101268.19;5036650;28;45459;-69
2022/06/07 00:26:54;;;;;;;;;1.00;1.00;;;;;20.70;92.84;101262.03;5038172;28;56697;-69
2022/06/07 00:29:22;;;;;;;;;1.00;1.00;;;;;20.66;93.11;101263.88;5038138;28;45546;-69
2022/06/07 00:31:47;;;;;;;;;1.00;1.00;;;;;20.63;93.88;101256.81;5037501;28;46686;-69
2022/06/07 00:34:13;;;;;;;;;1.00;1.00;;;;;20.61;95.03;101252.38;5037764;28;45342;-70
2022/06/07 00:36:39;;;;;;;;;1.00;1.00;;;;;20.58;94.74;101263.19;5037989;28;45399;-70
2022/06/07 00:39:05;;;;;;;;;0.00;0.00;;;;;20.56;94.32;101257.88;5020360;28;45561;-69
2022/06/07 00:41:30;;;;;;;;;0.33;0.33;;;;;20.51;96.15;101251.72;5037900;28;46777;-69
2022/06/07 00:44:17;;;;;;;;;1.00;1.00;;;;;20.47;97.96;101252.72;5038139;28;45349;-69
2022/06/07 00:46:43;;;;;;;;;2.00;1.00;;;;;20.41;96.70;101237.63;5037639;28;45412;-69
2022/06/07 00:49:09;;;;;;;;;2.00;1.00;;;;;20.40;98.10;101237.66;5038366;28;45448;-69
2022/06/07 00:51:35;;;;;;;;;1.00;1.00;;;;;20.37;97.54;101237.72;5037603;28;46798;-69
2022/06/07 00:54:00;;;;;;;;;1.00;1.00;;;;;20.35;99.40;101235.06;5037382;28;67265;-68
2022/06/07 00:56:25;;;;;;;;;1.67;1.00;;;;;20.31;99.97;101228.00;5019494;28;52217;-69
2022/06/07 00:58:51;;;;;;;;;2.00;2.00;;;;;20.28;100.00;101232.56;5037068;28;47363;-69
2022/06/07 01:01:17;;;;;;;;;2.67;1.00;;;;;20.24;100.00;101220.13;5036790;28;60810;-69
2022/06/07 01:03:42;;;;;;;;;0.67;0.67;;;;;20.21;99.83;101221.09;5037573;28;45555;-69
2022/06/07 01:11:35;;;;;;;;;3.00;1.33;;;;;20.23;100.00;101223.72;5037500;28;45241;-69
2022/06/07 01:14:00;;;;;;;;;2.00;2.00;;;;;20.23;100.00;101221.03;5037066;28;59160;-69
2022/06/07 01:16:26;;;;;;;;;1.00;1.00;;;;;20.23;100.00;101232.66;5036801;28;55636;-69
2022/06/07 01:18:51;;;;;;;;;1.67;1.67;;;;;20.23;100.00;101224.59;5037257;28;45295;-69
2022/06/07 01:21:22;;;;;;;;;1.00;1.00;;;;;20.25;100.00;101224.59;5036735;28;65503;-69
2022/06/07 01:23:48;;;;;;;;;2.67;0.67;;;;;20.27;100.00;101226.31;5037449;28;45209;-69
2022/06/07 01:26:14;;;;;;;;;0.33;0.33;;;;;20.28;100.00;101214.66;5036580;28;45345;-69
2022/06/07 01:28:40;;;;;;;;;1.00;1.00;;;;;20.29;100.00;101212.84;5036557;28;45660;-69
2022/06/07 01:31:05;;;;;;;;;2.00;2.00;;;;;20.29;100.00;101202.13;5037310;28;46827;-69
2022/06/07 01:33:30;;;;;;;;;2.00;0.67;;;;;20.29;100.00;101203.00;5036553;28;63868;-69
2022/06/07 01:36:05;;;;;;;;;1.00;1.00;;;;;20.31;100.00;101203.00;5036419;28;45431;-69
2022/06/07 01:38:34;;;;;;;;;4.00;2.00;;;;;20.31;100.00;101206.56;5037089;28;45258;-69
2022/06/07 01:43:44;;;;;;;;;0.67;0.67;;;;;20.31;100.00;101205.69;5036884;28;45404;-69
2022/06/07 01:46:09;;;;;;;;;1.67;1.67;;;;;20.29;100.00;101200.31;5037477;28;45292;-69
2022/06/07 01:48:35;;;;;;;;;1.00;1.00;;;;;20.30;100.00;101201.25;5036424;28;46080;-69
2022/06/07 01:51:02;;;;;;;;;1.00;1.00;;;;;20.31;100.00;101203.88;5036956;28;45807;-69
2022/06/07 01:53:27;;;;;;;;;1.33;1.33;;;;;20.30;100.00;101204.81;5026762;28;45300;-70
2022/06/07 01:56:10;;;;;;;;;2.00;1.00;;;;;20.32;100.00;101200.28;5036720;28;45937;-69
2022/06/07 01:58:37;;;;;;;;;3.00;2.00;;;;;20.33;100.00;101196.66;5036613;28;45362;-69
2022/06/07 02:01:02;;;;;;;;;1.00;1.00;;;;;20.33;100.00;101193.09;5037025;28;45740;-69
2022/06/07 02:03:28;;;;;;;;;1.33;1.33;;;;;20.32;100.00;101192.22;5025875;28;45295;-69
2022/06/07 02:06:00;;;;;;;;;1.33;1.33;;;;;20.32;100.00;101199.38;5036123;28;59153;-69
2022/06/07 02:08:27;;;;;;;;;2.00;2.00;;;;;20.31;100.00;101187.78;5018998;28;45486;-69
2022/06/07 02:10:53;;;;;;;;;1.00;1.00;;;;;20.29;100.00;101188.72;5007745;28;46444;-69
2022/06/07 02:13:19;;;;;;;;;1.67;1.67;;;;;20.26;100.00;101181.66;5036866;28;45421;-69
2022/06/07 02:15:45;;;;;;;;;2.00;2.00;;;;;20.25;100.00;101190.63;5018670;28;45262;-69
2022/06/07 02:18:10;;;;;;;;;1.00;1.00;;;;;20.27;100.00;101183.41;5019058;28;45622;-69
2022/06/07 02:20:37;;;;;;;;;1.00;1.00;;;;;20.27;100.00;101178.03;5018064;28;51980;-69
2022/06/07 02:23:02;;;;;;;;;1.33;1.33;;;;;20.27;100.00;101175.34;5036231;28;45451;-69
2022/06/07 02:25:28;;;;;;;;;2.33;2.00;;;;;20.27;100.00;101172.69;5036425;28;45492;-69
2022/06/07 02:27:54;;;;;;;;;2.00;2.00;;;;;20.26;100.00;101170.03;5018716;28;45363;-69
2022/06/07 02:30:20;;;;;;;;;1.00;1.00;;;;;20.27;100.00;101170.00;5034529;28;55092;-69
2022/06/07 02:32:45;;;;;;;;;1.00;1.00;;;;;20.27;100.00;101172.69;5035620;28;45346;-69
2022/06/07 02:35:11;;;;;;;;;0.67;0.67;;;;;20.26;100.00;101165.56;5017564;28;56525;-69
2022/06/07 02:37:37;;;;;;;;;1.67;1.67;;;;;20.25;100.00;101158.44;5035893;28;47749;-69
2022/06/07 02:40:04;;;;;;;;;1.00;1.00;;;;;20.26;100.00;101164.69;5020462;28;45700;-69
2022/06/07 02:42:30;;;;;;;;;1.67;1.67;;;;;20.25;100.00;101158.44;5018156;28;45541;-69
2022/06/07 02:44:57;;;;;;;;;1.67;1.67;;;;;20.24;100.00;101156.69;5035996;28;45262;-70
2022/06/07 02:47:22;;;;;;;;;1.33;1.33;;;;;20.25;100.00;101150.38;5035375;28;45514;-69
2022/06/07 02:49:48;;;;;;;;;1.67;1.33;;;;;20.29;100.00;101149.38;5035778;28;46093;-69
2022/06/07 02:52:13;;;;;;;;;2.00;2.00;;;;;20.30;100.00;101142.25;5035073;28;57648;-69
2022/06/07 02:54:38;;;;;;;;;1.67;1.00;;;;;20.30;100.00;101148.47;5036224;28;45487;-69
2022/06/07 02:57:04;;;;;;;;;1.33;1.33;;;;;20.32;100.00;101143.94;5035164;28;52330;-69
2022/06/07 02:59:30;;;;;;;;;2.00;2.00;;;;;20.33;100.00;101144.81;5035626;28;46482;-69
2022/06/07 03:01:55;;;;;;;;;2.00;2.00;;;;;20.32;100.00;101146.63;5035156;28;45242;-69
2022/06/07 03:04:21;;;;;;;;;2.00;2.00;;;;;20.31;100.00;101147.56;5035452;28;50220;-69
2022/06/07 03:06:46;;;;;;;;;1.67;1.67;;;;;20.32;100.00;101146.63;5035489;28;45392;-69
2022/06/07 03:09:11;;;;;;;;;2.00;2.00;;;;;20.32;100.00;101143.06;5035565;28;46778;-69
2022/06/07 03:11:37;;;;;;;;;2.33;2.33;;;;;20.31;100.00;101135.94;5036120;28;45480;-69
2022/06/07 03:14:02;;;;;;;;;3.67;1.33;;;;;20.31;100.00;101138.63;5035811;28;45458;-69
2022/06/07 03:16:28;;;;;;;;;2.00;2.00;;;;;20.31;100.00;101141.31;5035151;28;56234;-69
2022/06/07 03:18:53;;;;;;;;;1.00;1.00;;;;;20.31;100.00;101136.81;5017135;28;45557;-69
2022/06/07 03:21:19;;;;;;;;;2.67;1.00;;;;;20.30;100.00;101132.38;5035360;28;45485;-69
2022/06/07 03:23:45;;;;;;;;;2.33;2.33;;;;;20.29;100.00;101141.31;5017669;28;45466;-69
2022/06/07 03:26:12;;;;;;;;;3.00;2.00;;;;;20.27;100.00;101139.63;5034811;28;45654;-69
2022/06/07 03:28:37;;;;;;;;;2.00;2.00;;;;;20.26;100.00;101141.41;5035465;28;47655;-69
2022/06/07 03:31:04;;;;;;;;;1.00;1.00;;;;;20.25;100.00;101145.03;5035341;28;45662;-69
2022/06/07 03:33:30;;;;;;;;;2.00;2.00;;;;;20.26;100.00;101143.22;5035101;28;45427;-69
2022/06/07 03:35:55;;;;;;;;;4.00;2.00;;;;;20.25;100.00;101142.34;5034339;28;59146;-69
2022/06/07 03:38:20;;;;;;;;;3.00;1.33;;;;;20.26;100.00;101137.84;5000150;28;66699;-69
2022/06/07 03:40:46;;;;;;;;;2.67;2.67;;;;;20.23;100.00;101128.06;5034799;28;53691;-69
2022/06/07 03:43:12;;;;;;;;;1.67;1.67;;;;;20.23;100.00;101136.13;5017614;28;45546;-69
2022/06/07 03:45:38;;;;;;;;;1.67;1.67;;;;;20.23;100.00;101138.78;5014777;28;45467;-69
2022/06/07 03:48:04;;;;;;;;;2.00;2.00;;;;;20.22;100.00;101133.47;5035219;28;47697;-69
2022/06/07 03:50:29;;;;;;;;;1.00;1.00;;;;;20.22;100.00;101134.34;5034482;28;45413;-69
2022/06/07 03:52:55;;;;;;;;;4.00;2.33;;;;;20.22;100.00;101139.72;5019213;28;56557;-69
2022/06/07 03:55:20;;;;;;;;;4.00;2.00;;;;;20.22;100.00;101139.72;5034556;28;52735;-69
2022/06/07 03:57:45;;;;;;;;;1.00;1.00;;;;;20.20;100.00;101138.88;5034911;28;46524;-69
2022/06/07 04:00:11;;;;;;;;;1.67;1.67;;;;;20.19;100.00;101137.13;5021920;28;45598;-69
2022/06/07 04:02:37;;;;;;;;;0.67;0.67;;;;;20.19;100.00;101137.13;5036883;28;45395;-69
2022/06/07 04:05:03;;;;;;;;;3.00;2.00;;;;;20.19;100.00;101142.50;5022082;28;45301;-69
2022/06/07 04:10:12;;;;;;;;;2.67;2.67;;;;;20.16;100.00;101139.88;5038588;28;45494;-70
2022/06/07 04:12:37;;;;;;;;;3.00;2.00;;;;;20.16;100.00;101145.22;5019889;28;55712;-69
2022/06/07 04:15:03;;;;;;;;;1.67;1.67;;;;;20.15;100.00;101140.78;5037704;28;56484;-69
2022/06/07 04:17:29;;;;;;;;;2.00;2.00;;;;;20.13;100.00;101132.81;5037970;28;46648;-69
2022/06/07 04:19:54;;;;;;;;;3.33;1.00;;;;;20.13;100.00;101137.25;5039621;28;59304;-69
2022/06/07 04:22:20;;;;;;;;;1.00;1.00;;;;;20.14;100.00;101133.69;5037940;28;45376;-69
2022/06/07 04:24:46;;;;;;;;;2.00;2.00;;;;;20.16;100.00;101137.19;5038575;28;45323;-68
2022/06/07 04:27:11;;;;;;;;;1.00;1.00;;;;;20.17;100.00;101138.06;5019645;28;47244;-68
2022/06/07 04:29:36;;;;;;;;;2.00;2.00;;;;;20.12;100.00;101144.41;5036587;28;64674;-68
2022/06/07 04:32:02;;;;;;;;;2.33;2.00;;;;;20.12;100.00;101141.72;5036392;28;54261;-70
2022/06/07 04:34:28;;;;;;;;;2.67;1.67;;;;;20.10;100.00;101132.84;5038190;28;45395;-71
2022/06/07 04:36:53;;;;;;;;;2.00;2.00;;;;;20.07;100.00;101143.63;5018343;28;46214;-68
2022/06/07 04:39:19;;;;;;;;;1.00;1.00;;;;;20.07;100.00;101137.41;5034917;28;45626;-68
2022/06/07 04:41:44;;;;;;;;;1.67;1.67;;;;;20.05;100.00;101134.75;5036018;28;45526;-68
2022/06/07 04:44:09;;;;;;;;;0.67;0.67;;;;;20.02;100.00;101129.47;5037675;28;45498;-70
2022/06/07 04:46:35;;;;;;;;;2.00;2.00;;;;;20.02;100.00;101131.25;5036891;28;63403;-68
2022/06/07 04:49:00;;;;;;;;;2.00;2.00;;;;;20.02;100.00;101133.94;5037463;28;45423;-68
2022/06/07 04:51:29;;;;;;;;;1.67;1.67;;;;;20.01;100.00;101132.19;5036814;28;48846;-69
2022/06/07 04:53:56;;;;;;;;;2.00;2.00;;;;;20.01;100.00;101137.53;5037352;28;45502;-69
2022/06/07 04:56:24;;;;;;;;;2.00;2.00;;;;;20.00;100.00;101133.09;5036884;28;45777;-68
2022/06/07 04:58:50;;;;;;;;;1.00;1.00;;;;;19.97;100.00;101127.81;5037385;28;45454;-68
2022/06/07 05:01:27;;;;;;;;;1.00;1.00;;;;;19.91;100.00;101127.94;5037342;28;45417;-69
2022/06/07 05:03:53;;;;;;;;;0.67;0.67;;;;;19.83;100.00;101133.50;5036392;28;45514;-69
2022/06/07 05:06:20;;;;;;;;;2.33;2.33;;;;;19.76;100.00;101130.06;5018947;28;45901;-71
2022/06/07 05:08:45;;;;;;;;;0.33;0.33;;;;;19.72;100.00;101130.19;5036680;28;45399;-69
2022/06/07 05:11:11;;;;;;;;;3.00;1.33;;;;;19.72;100.00;101140.91;5035315;28;45597;-69
2022/06/07 05:13:36;;;;;;;;;2.00;2.00;;;;;19.72;100.00;101146.25;5035172;28;45815;-69
2022/06/07 05:16:03;;;;;;;;;2.33;2.33;;;;;19.71;100.00;101134.66;5014604;28;47511;-69
2022/06/07 05:18:28;;;;;;;;;2.00;2.00;;;;;19.73;100.00;101132.81;5017967;28;45654;-69
2022/06/07 05:20:54;;;;;;;;;1.00;1.00;;;;;19.75;100.00;101132.78;5035868;28;45610;-69
2022/06/07 05:23:19;;;;;;;;;1.33;1.33;;;;;19.75;100.00;101138.13;5035897;28;45419;-69
2022/06/07 05:26:03;;;;;;;;;1.33;1.33;;;;;19.75;100.00;101133.66;5034309;28;66620;-69
2022/06/07 05:28:28;;;;;;;;;2.00;2.00;;;;;19.73;100.00;101135.50;5015193;28;45336;-69
2022/06/07 05:30:54;;;;;;;;;3.00;1.67;;;;;19.75;100.00;101140.81;5033232;28;61910;-69
2022/06/07 05:33:19;;;;;;;;;2.33;2.33;;;;;19.76;100.00;101138.13;5032494;28;45541;-70
2022/06/07 05:35:44;;;;;;;;;1.67;1.67;;;;;19.79;100.00;101135.34;5040187;28;46440;-69
2022/06/07 05:38:14;;;;;;;;;1.33;1.33;;;;;19.82;100.00;101132.63;5036461;28;45551;-69
2022/06/07 05:40:39;;;;;;;;;2.00;1.33;;;;;19.86;100.00;101138.75;5036859;28;45320;-72
2022/06/07 05:43:05;;;;;;;;;2.00;2.00;;;;;19.83;100.00;101147.78;5036365;28;45385;-72
2022/06/07 05:45:33;;;;;;;;;1.67;1.67;;;;;19.77;100.00;101133.63;5018434;28;47552;-72
2022/06/07 05:47:58;;;;;;;;;3.00;1.67;;;;;19.66;100.00;101141.91;5032755;28;45495;-73
2022/06/07 05:50:25;;;;;;;;;1.67;1.67;;;;;19.59;100.00;101148.28;5035371;28;45315;-73
2022/06/07 05:52:51;;;;;;;;;1.67;1.67;;;;;19.55;100.00;101149.25;5017922;28;45484;-72
2022/06/07 05:55:16;;;;;;;;;1.67;1.00;;;;;19.51;100.00;101152.91;5036040;28;46718;-70
2022/06/07 05:57:44;;;;;;;;;1.67;1.67;;;;;19.48;100.00;101150.28;5017726;28;53743;-72
2022/06/07 06:00:10;;;;;;;;;1.67;1.67;;;;;19.44;100.00;101153.94;5019169;28;45464;-72
2022/06/07 06:02:36;;;;;;;;;1.67;1.67;;;;;19.38;100.00;101153.13;5034706;28;45480;-72
2022/06/07 06:05:01;;;;;;;;;2.33;1.33;;;;;19.40;100.00;101154.94;5011977;28;46656;-72
2022/06/07 06:07:28;;;;;;;;;1.67;1.67;;;;;19.42;100.00;101150.41;5033827;28;45455;-72
2022/06/07 06:12:37;;;;;;;;;1.33;1.33;;;;;19.46;100.00;101173.53;5034694;28;45548;-73
2022/06/07 06:15:03;;;;;;;;;1.33;1.33;;;;;19.46;100.00;101158.34;5033130;28;46229;-73
2022/06/07 06:17:30;;;;;;;;;1.67;1.67;;;;;19.49;100.00;101168.09;5033949;28;45473;-72
2022/06/07 06:19:55;;;;;;;;;2.33;1.33;;;;;19.51;100.00;101163.63;5032015;28;45435;-72
2022/06/07 06:22:21;;;;;;;;;0.33;0.33;;;;;19.51;100.00;101159.16;5029593;28;45532;-72
2022/06/07 06:24:46;;;;;;;;;2.00;1.00;;;;;19.49;100.00;101162.75;5032426;28;45907;-72
2022/06/07 06:27:12;;;;;;;;;3.33;1.33;;;;;19.53;100.00;101168.03;5032253;28;46451;-72
2022/06/07 06:29:37;;;;;;;;;0.67;0.67;;;;;19.56;100.00;101167.09;5028444;28;45634;-72
2022/06/07 06:32:03;;;;;;;;;1.33;0.00;;;;;19.58;100.00;101165.25;5028913;28;45514;-72
2022/06/07 06:34:29;;;;;;;;;1.67;1.67;;;;;19.61;100.00;101170.59;5015014;28;47617;-72
2022/06/07 06:36:56;;;;;;;;;2.33;0.33;;;;;19.60;100.00;101174.16;5033180;28;45575;-71
2022/06/07 06:39:22;;;;;;;;;1.67;1.67;;;;;19.57;100.00;101174.22;5033369;28;45173;-72
2022/06/07 06:41:48;;;;;;;;;0.67;0.67;;;;;19.53;100.00;101172.50;5034350;28;45573;-72
2022/06/07 06:44:13;;;;;;;;;0.33;0.33;;;;;19.50;100.00;101185.97;5032487;28;46025;-73
2022/06/07 06:46:42;;;;;;;;;1.00;1.00;;;;;19.44;100.00;101186.06;5013970;28;45544;-72
2022/06/07 06:49:09;;;;;;;;;1.00;1.00;;;;;19.39;100.00;101191.53;5014451;28;45492;-71
2022/06/07 06:51:35;;;;;;;;;2.00;0.67;;;;;19.38;100.00;101190.63;5014510;28;45834;-74
2022/06/07 06:54:02;;;;;;;;;3.33;1.00;;;;;19.40;100.00;101187.06;5031475;28;46369;-72
2022/06/07 06:56:29;;;;;;;;;0.33;0.33;;;;;19.43;100.00;101187.00;5028712;28;46750;-72
2022/06/07 06:58:55;;;;;;;;;0.67;0.67;;;;;19.47;100.00;101194.06;5031472;28;45707;-72
2022/06/07 07:01:31;;;;;;;;;0.33;0.33;;;;;19.47;100.00;101189.56;5027187;28;45612;-73
2022/06/07 07:03:57;;;;;;;;;1.33;0.33;;;;;19.50;100.00;101194.00;5032267;28;46122;-71
2022/06/07 07:06:23;;;;;;;;;0.67;0.67;;;;;19.53;100.00;101194.81;5033684;28;45574;-72
2022/06/07 07:08:49;;;;;;;;;3.67;0.67;;;;;19.58;100.00;101197.41;4998910;28;45517;-73
2022/06/07 07:11:24;;;;;;;;;2.33;1.33;;;;;19.60;100.00;101191.16;5034047;28;45364;-72
2022/06/07 07:13:53;;;;;;;;;0.67;0.67;;;;;19.65;100.00;101195.50;5033112;28;46507;-73
2022/06/07 07:16:21;;;;;;;;;1.67;0.67;;;;;19.66;100.00;101194.63;5017008;28;45321;-72
2022/06/07 07:18:47;;;;;;;;;0.00;0.00;;;;;19.69;100.00;101205.25;5036087;28;45554;-73
2022/06/07 07:21:16;;;;;;;;;2.67;0.00;;;;;19.73;100.00;101212.31;5018076;28;45557;-73
2022/06/07 07:23:42;;;;;;;;;0.00;0.00;;;;;19.76;100.00;101198.84;5013919;28;45760;-70
2022/06/07 07:26:10;;;;;;;;;2.33;0.67;;;;;19.83;100.00;101209.41;5033331;28;45507;-71
2022/06/07 07:28:38;;;;;;;;;1.67;0.67;;;;;19.84;100.00;101199.56;5023793;28;45530;-71
2022/06/07 07:31:06;;;;;;;;;0.00;0.00;;;;;19.88;100.00;101196.78;5014637;28;45680;-72
2022/06/07 07:33:31;;;;;;;;;1.00;0.67;;;;;19.95;100.00;101207.38;5036018;28;45796;-71
2022/06/07 07:35:56;;;;;;;;;0.00;0.00;;;;;20.01;100.00;101201.88;5036418;28;45408;-71
2022/06/07 07:38:23;;;;;;;;;0.00;0.00;;;;;20.04;100.00;101207.19;5037032;28;45423;-71
2022/06/07 07:40:49;;;;;;;;;0.00;0.00;;;;;20.05;100.00;101198.22;5017801;28;45511;-72
2022/06/07 07:43:14;;;;;;;;;2.33;1.00;;;;;20.08;100.00;101193.69;5036822;28;46468;-74
2022/06/07 07:45:40;;;;;;;;;0.67;0.67;;;;;20.15;100.00;101199.78;5037713;28;45545;-72
2022/06/07 07:48:05;;;;;;;;;1.00;1.00;;;;;20.23;100.00;101205.84;5036894;28;45408;-72
2022/06/07 07:50:31;;;;;;;;;1.00;1.00;;;;;20.31;100.00;101203.00;5037364;28;45685;-73
2022/06/07 07:52:58;;;;;;;;;1.00;1.00;;;;;20.37;100.00;101195.69;5019157;28;46056;-72
2022/06/07 07:55:24;;;;;;;;;0.00;0.00;;;;;20.46;100.00;101201.75;5035540;28;45511;-72
2022/06/07 07:57:49;;;;;;;;;0.33;0.33;;;;;20.58;100.00;101209.53;5035292;28;45481;-71
2022/06/07 08:00:15;;;;;;;;;1.00;1.00;;;;;20.64;100.00;101204.00;5036304;28;45305;-71
2022/06/07 08:02:40;;;;;;;;;0.67;0.67;;;;;20.69;100.00;101211.97;5035524;28;46501;-72
2022/06/07 08:05:06;;;;;;;;;0.00;0.00;;;;;20.70;100.00;101211.03;5037539;28;45498;-72
2022/06/07 08:07:32;;;;;;;;;3.00;1.33;;;;;20.73;100.00;101209.16;5036151;28;45621;-75
2022/06/07 08:09:59;;;;;;;;;1.00;1.00;;;;;20.73;100.00;101208.28;5018193;28;45332;-73
2022/06/07 08:12:26;;;;;;;;;2.00;1.00;;;;;20.74;100.00;101207.34;5015745;28;46141;-73
2022/06/07 08:14:51;;;;;;;;;1.33;1.33;;;;;20.74;100.00;101205.56;5034791;28;45547;-73
2022/06/07 08:17:17;;;;;;;;;2.00;0.00;;;;;20.74;100.00;101208.25;5035813;28;45515;-73
2022/06/07 08:19:42;;;;;;;;;1.33;1.00;;;;;20.76;100.00;101209.06;5036235;28;45494;-73
2022/06/07 08:22:09;;;;;;;;;1.00;1.00;;;;;20.77;100.00;101200.09;5036554;28;45581;-73
2022/06/07 08:24:35;;;;;;;;;1.00;1.00;;;;;20.82;100.00;101208.03;5036160;28;45617;-73
2022/06/07 08:27:00;;;;;;;;;1.33;0.00;;;;;20.84;100.00;101208.88;5036754;28;45531;-72
2022/06/07 08:29:26;;;;;;;;;2.00;1.00;;;;;20.84;100.00;101207.09;5019906;28;45397;-73
2022/06/07 08:31:51;;;;;;;;;1.00;1.00;;;;;20.87;100.00;101201.63;5036087;28;45728;-72
2022/06/07 08:39:44;;;;;;;;;1.00;1.00;;;;;21.03;100.00;101196.72;5034443;28;45596;-72
2022/06/07 08:42:30;;;;;;;;;0.33;0.33;;;;;21.13;100.00;101202.75;5031515;28;45556;-73
2022/06/07 08:45:02;;;;;;;;;2.33;1.00;;;;;21.18;100.00;101195.44;5035004;28;45554;-72
2022/06/07 08:47:39;;;;;;;;;3.67;1.67;;;;;21.25;100.00;101193.47;5018883;28;45580;-74
2022/06/07 08:50:23;;;;;;;;;2.00;1.00;;;;;21.35;100.00;101192.31;5036979;28;45404;-73
2022/06/07 08:52:53;;;;;;;;;1.00;1.00;;;;;21.36;100.00;101192.31;5013998;28;47852;-73
2022/06/07 08:55:36;;;;;;;;;3.00;2.00;;;;;21.42;100.00;101185.88;5018543;28;45316;-73
2022/06/07 08:58:15;;;;;;;;;1.00;1.00;;;;;21.52;100.00;101184.69;5018557;28;45466;-72
2022/06/07 09:00:44;;;;;;;;;1.33;1.33;;;;;21.58;100.00;101197.97;5036237;28;45240;-71
2022/06/07 09:03:12;;;;;;;;;1.00;1.00;;;;;21.62;100.00;101185.28;5036464;28;46625;-71
2022/06/07 09:05:38;;;;;;;;;1.00;1.00;;;;;21.58;100.00;101192.59;5035502;28;45562;-71
2022/06/07 09:08:04;;;;;;;;;0.00;0.00;;;;;21.52;100.00;101195.44;5037388;28;45659;-71
2022/06/07 09:13:13;;;;;;;;;0.67;0.67;;;;;21.47;100.00;101192.00;5036367;28;45782;-72
2022/06/07 09:15:40;;;;;;;;;1.00;1.00;;;;;21.44;100.00;101187.59;5035395;28;45503;-72
2022/06/07 09:18:07;;;;;;;;;1.33;1.00;;;;;21.38;100.00;101200.31;5034796;28;45536;-70
2022/06/07 09:20:41;;;;;;;;;1.00;1.00;;;;;21.31;100.00;101199.63;5014658;28;45286;-70
2022/06/07 09:23:28;;;;;;;;;2.00;0.00;;;;;21.27;100.00;101202.38;5033360;28;46827;-71
2022/06/07 09:29:15;;;;;;;;;0.33;0.33;;;;;21.29;100.00;101196.03;5032700;28;45437;-74
2022/06/07 09:31:42;;;;;;;;;1.00;1.00;;;;;21.24;100.00;101211.41;5034914;28;45873;-71
2022/06/07 09:34:16;;;;;;;;;1.33;0.33;;;;;21.17;100.00;101208.00;5035340;28;45537;-73
2022/06/07 09:36:47;;;;;;;;;1.00;1.00;;;;;21.17;100.00;101204.44;5035692;28;45484;-71
2022/06/07 09:39:16;;;;;;;;;1.00;1.00;;;;;21.25;100.00;101196.16;5035744;28;45522;-73
2022/06/07 09:41:47;;;;;;;;;1.00;1.00;;;;;21.32;100.00;101204.06;5033112;28;45466;-71
2022/06/07 09:44:34;;;;;;;;;1.00;1.00;;;;;21.31;100.00;101201.44;5033500;28;46692;-71
2022/06/07 09:47:25;;;;;;;;;1.00;1.00;;;;;21.28;100.00;101206.84;5034025;28;45541;-72
2022/06/07 09:50:19;;;;;;;;;0.00;0.00;;;;;21.26;100.00;101193.44;5029548;28;45987;-71
2022/06/07 09:52:48;;;;;;;;;0.67;0.67;;;;;21.23;100.00;101192.66;5035425;28;45491;-73
2022/06/07 09:55:16;;;;;;;;;2.00;0.33;;;;;21.22;100.00;101191.78;5035320;28;46884;-72
2022/06/07 09:57:46;;;;;;;;;0.67;0.67;;;;;21.20;100.00;101185.56;5035893;28;45382;-71
2022/06/07 10:00:22;;;;;;;;;0.00;0.00;;;;;21.27;100.00;101188.97;5031987;28;46041;-71
2022/06/07 10:03:12;;;;;;;;;0.00;0.00;;;;;21.43;100.00;101184.94;5033286;28;45630;-73
2022/06/07 10:05:43;;;;;;;;;0.00;0.00;;;;;21.60;100.00;101187.16;5034181;28;46685;-72
2022/06/07 10:08:34;;;;;;;;;0.67;0.00;;;;;21.73;100.00;101180.47;5031393;28;45527;-72
2022/06/07 10:11:19;;;;;;;;;2.67;1.00;;;;;21.93;100.00;101172.69;5035019;28;45322;-72
2022/06/07 10:14:22;;;;;;;;;2.33;0.00;;;;;22.05;100.00;101173.25;5034625;28;45595;-72
2022/06/07 10:17:15;;;;;;;;;0.00;0.00;;;;;22.04;100.00;101172.38;5030264;28;46329;-72
2022/06/07 10:19:50;;;;;;;;;0.00;0.00;;;;;22.05;100.00;101178.63;5034598;28;45549;-72
2022/06/07 10:22:27;;;;;;;;;0.00;0.00;;;;;21.97;100.00;101170.81;5035107;28;45505;-71
2022/06/07 10:24:58;;;;;;;;;0.00;0.00;;;;;21.88;100.00;101176.47;5035214;28;45801;-72
2022/06/07 10:27:32;;;;;;;;;0.00;0.00;;;;;21.79;100.00;101168.69;5033570;28;46673;-71
2022/06/07 10:30:22;;;;;;;;;0.67;0.67;;;;;21.82;100.00;101174.84;5031927;28;45468;-70
2022/06/07 10:33:09;;;;;;;;;0.00;0.00;;;;;21.95;100.00;101175.38;5035148;28;45323;-72
2022/06/07 10:35:57;;;;;;;;;0.00;0.00;;;;;22.23;100.00;101161.97;5033685;28;45495;-71
2022/06/07 10:38:50;;;;;;;;;0.67;0.00;;;;;22.44;100.00;101166.66;5030473;28;46705;-71
2022/06/07 10:41:44;;;;;;;;;0.00;0.00;;;;;22.53;98.63;101160.09;5035233;28;45292;-71
2022/06/07 10:44:39;;;;;;;;;0.00;0.00;;;;;22.60;97.66;101161.63;5031757;28;45441;-71
2022/06/07 10:47:14;;;;;;;;;0.00;0.00;;;;;22.60;96.11;101155.38;5034353;28;45465;-71
2022/06/07 10:49:47;;;;;;;;;0.00;0.00;;;;;22.57;96.06;101159.03;5031934;28;45794;-72
2022/06/07 10:52:33;;;;;;;;;0.00;0.00;;;;;22.54;96.80;101166.34;5035334;28;45531;-71
2022/06/07 10:55:13;;;;;;;;;0.67;0.67;;;;;22.51;94.54;101167.31;5034522;28;45387;-70
2022/06/07 10:57:54;;;;;;;;;0.33;0.00;;;;;22.53;96.01;101165.47;5031290;28;45252;-71
2022/06/07 11:00:19;;;;;;;;;1.00;1.00;;;;;22.57;93.99;101174.31;5035006;28;45731;-71
2022/06/07 11:03:05;;;;;;;;;0.00;0.00;;;;;22.64;94.40;101165.13;5034774;28;45475;-72
2022/06/07 11:11:15;;;;;;;;;2.00;0.33;;;;;22.44;94.76;101171.16;5030451;28;45727;-72
2022/06/07 11:13:53;;;;;;;;;0.00;0.00;;;;;22.45;95.19;101157.63;5033585;28;46616;-70
2022/06/07 11:17:07;;;;;;;;;1.67;0.00;;;;;22.63;95.95;101149.88;5034040;28;46160;-72
2022/06/07 11:19:32;;;;;;;;;0.00;0.00;;;;;22.79;92.31;101150.22;5029154;28;45616;-73
2022/06/07 11:22:02;;;;;;;;;0.33;0.33;;;;;22.92;90.39;101154.31;5033247;28;46372;-73
2022/06/07 11:24:31;;;;;;;;;0.00;0.00;;;;;23.08;91.48;101154.63;5033155;28;45840;-71
2022/06/07 11:27:02;;;;;;;;;0.33;0.33;;;;;23.19;91.63;101149.75;5032998;28;45481;-72
2022/06/07 11:29:30;;;;;;;;;0.00;0.00;;;;;23.23;91.12;101156.78;5034500;28;45366;-72
2022/06/07 11:31:56;;;;;;;;;2.00;0.00;;;;;23.25;90.66;101162.97;5032257;28;46833;-72
2022/06/07 11:34:23;;;;;;;;;0.00;0.00;;;;;23.26;91.51;101157.53;5029470;28;45512;-71
2022/06/07 11:37:09;;;;;;;;;0.00;0.00;;;;;23.35;91.70;101167.09;5032517;28;45594;-71
2022/06/07 11:39:38;;;;;;;;;2.00;0.00;;;;;23.45;90.47;101151.47;5025229;28;45801;-72
2022/06/07 11:42:12;;;;;;;;;0.00;0.00;;;;;23.42;90.89;101159.66;5033813;28;45693;-72
2022/06/07 11:44:58;;;;;;;;;0.00;0.00;;;;;23.24;90.04;101155.84;5034414;28;45374;-72
2022/06/07 11:47:28;;;;;;;;;1.00;0.00;;;;;23.13;88.17;101152.66;5032044;28;46132;-72
2022/06/07 11:49:57;;;;;;;;;1.00;1.00;;;;;23.26;87.01;101144.06;5033287;28;45547;-75
2022/06/07 11:52:25;;;;;;;;;0.00;0.00;;;;;23.46;86.49;101137.06;5033896;28;46550;-72
2022/06/07 11:54:55;;;;;;;;;2.00;1.00;;;;;23.58;86.50;101141.09;5034581;28;45265;-73
2022/06/07 11:57:37;;;;;;;;;0.00;0.00;;;;;23.52;86.34;101145.78;5032276;28;45493;-73